Terminal Aerodrome Forecast
Issued by NWS Jackson, MS

Home | Current Version | Previous Version | Text Only | Print | Product List | Glossary On
Versions: 1 2 3 4 5 6 7 8 9 10 11 12 13 14 15 16 17
000
FTUS44 KMEG 242337
TAFTUP
TAF
KTUP 242337Z 2500/2524 21010KT P6SM BKN050
      TEMPO 2502/2504 6SM -TSRA BKN040CB
     FM250500 34011G17KT P6SM SKC
     FM251800 34008KT P6SM SKC=

USA.gov is the U.S. government's official web portal to all federal, state and local government web resources and services.